Time;durP1;ratioP1;P1;durP2;ratioP2;P2;SDS_P1;SDS_P2;PMS_P1;PMS_P2;Temp;Humidity;BMP_temperature;BMP_pressure;BME280_temperature;BME280_humidity;BME280_pressure;Samples;Min_cycle;Max_cycle;Signal;HPM_P1;HPM_P2
2021/07/03 00:01:12;;;;;;;2.88;1.52;;;15.50;83.50;;;;;;5074576;28;20134;-78
2021/07/03 00:03:38;;;;;;;2.63;1.73;;;15.50;83.60;;;;;;5092535;28;20044;-78
2021/07/03 00:06:04;;;;;;;2.80;1.88;;;15.40;83.70;;;;;;5074859;28;20113;-78
2021/07/03 00:08:29;;;;;;;2.50;1.75;;;15.40;83.60;;;;;;5092607;28;20043;-78
2021/07/03 00:10:56;;;;;;;2.70;1.70;;;15.40;83.70;;;;;;5074118;28;20040;-78
2021/07/03 00:13:22;;;;;;;2.83;1.65;;;15.40;83.70;;;;;;5072868;28;20084;-78
2021/07/03 00:15:47;;;;;;;2.42;1.52;;;15.30;83.70;;;;;;5092222;28;20047;-78
2021/07/03 00:18:13;;;;;;;2.78;1.70;;;15.30;83.80;;;;;;5073442;28;20044;-78
2021/07/03 00:20:40;;;;;;;2.30;1.48;;;15.20;83.80;;;;;;5092095;28;20571;-78
2021/07/03 00:23:06;;;;;;;2.30;1.58;;;15.30;83.90;;;;;;5090570;28;20473;-78
2021/07/03 00:25:31;;;;;;;3.38;1.80;;;15.20;83.90;;;;;;5074304;28;20044;-78
2021/07/03 00:27:57;;;;;;;3.13;1.50;;;15.20;84.00;;;;;;5073517;28;20090;-78
2021/07/03 00:30:23;;;;;;;2.78;1.70;;;15.20;84.10;;;;;;5057739;28;20043;-78
2021/07/03 00:32:48;;;;;;;1.73;1.20;;;15.10;84.00;;;;;;5092578;28;20036;-78
2021/07/03 00:35:14;;;;;;;2.10;1.30;;;15.10;84.10;;;;;;5091974;28;20040;-78
2021/07/03 00:37:40;;;;;;;1.90;1.27;;;15.10;84.10;;;;;;5057248;28;20094;-78
2021/07/03 00:40:07;;;;;;;2.25;1.52;;;15.10;84.20;;;;;;5073835;28;20063;-78
2021/07/03 00:42:33;;;;;;;3.25;1.85;;;15.10;84.10;;;;;;5040463;28;20132;-78
2021/07/03 00:44:59;;;;;;;2.67;1.80;;;15.00;84.10;;;;;;5073695;28;20442;-78
2021/07/03 00:47:24;;;;;;;1.75;1.33;;;15.00;84.20;;;;;;5057209;28;20501;-78
2021/07/03 00:49:50;;;;;;;2.13;1.50;;;15.00;84.30;;;;;;5073872;28;20397;-78
2021/07/03 00:52:15;;;;;;;2.35;1.60;;;15.00;84.30;;;;;;5056625;28;20048;-78
2021/07/03 00:54:41;;;;;;;2.08;1.60;;;14.90;84.30;;;;;;5072500;28;20047;-78
2021/07/03 00:57:08;;;;;;;1.98;1.30;;;14.90;84.40;;;;;;5091853;28;20496;-78
2021/07/03 00:59:39;;;;;;;2.67;1.50;;;14.90;84.40;;;;;;5073605;28;20370;-78
2021/07/03 01:02:06;;;;;;;2.92;1.60;;;14.90;84.40;;;;;;5057157;28;20070;-78
2021/07/03 01:04:32;;;;;;;2.70;1.73;;;14.90;84.40;;;;;;5091703;28;20052;-78
2021/07/03 01:06:58;;;;;;;3.20;1.83;;;15.00;84.40;;;;;;5091539;28;20397;-78
2021/07/03 01:09:24;;;;;;;2.30;1.58;;;14.90;84.40;;;;;;5091644;28;20038;-77
2021/07/03 01:11:50;;;;;;;2.67;1.63;;;14.90;84.40;;;;;;5073125;28;20029;-78
2021/07/03 01:14:17;;;;;;;3.05;1.80;;;14.80;84.40;;;;;;5089283;28;20560;-78
2021/07/03 01:16:44;;;;;;;3.47;1.90;;;14.80;84.50;;;;;;5056574;28;20050;-78
2021/07/03 01:19:09;;;;;;;3.95;2.20;;;14.80;84.60;;;;;;5091574;28;20123;-78
2021/07/03 01:21:35;;;;;;;2.53;1.70;;;14.80;84.60;;;;;;5072879;28;20192;-78
2021/07/03 01:24:01;;;;;;;1.60;1.35;;;14.80;84.60;;;;;;5091750;28;20044;-78
2021/07/03 01:26:27;;;;;;;3.03;1.80;;;14.80;84.50;;;;;;5073710;28;20097;-78
2021/07/03 01:28:52;;;;;;;1.63;1.15;;;14.80;84.50;;;;;;5073851;28;20504;-78
2021/07/03 01:31:18;;;;;;;2.40;1.45;;;14.80;84.50;;;;;;5077290;28;20458;-78
2021/07/03 01:33:44;;;;;;;2.47;1.60;;;14.80;84.60;;;;;;5075437;28;20036;-78
2021/07/03 01:36:10;;;;;;;2.22;1.35;;;14.70;84.50;;;;;;5076706;28;20141;-78
2021/07/03 01:38:35;;;;;;;2.38;1.70;;;14.60;84.50;;;;;;5094646;28;20131;-78
2021/07/03 01:41:02;;;;;;;1.95;1.40;;;14.70;84.60;;;;;;5075189;28;20494;-78
2021/07/03 01:43:29;;;;;;;1.92;1.35;;;14.60;84.60;;;;;;5058257;28;20048;-78
2021/07/03 01:45:56;;;;;;;1.90;1.30;;;14.60;85.30;;;;;;5059573;28;20036;-78
2021/07/03 01:48:25;;;;;;;2.22;1.60;;;14.60;84.70;;;;;;5093352;28;20422;-78
2021/07/03 01:50:52;;;;;;;3.03;1.50;;;14.60;84.80;;;;;;5059530;28;20039;-78
2021/07/03 01:53:18;;;;;;;2.60;1.58;;;14.60;84.80;;;;;;5058832;28;20071;-78
2021/07/03 01:55:43;;;;;;;2.13;1.65;;;14.60;84.80;;;;;;5076491;28;20076;-78
2021/07/03 01:58:14;;;;;;;1.73;1.40;;;14.60;84.80;;;;;;5076169;28;20105;-78
2021/07/03 02:00:39;;;;;;;2.10;1.50;;;14.50;84.80;;;;;;5060078;28;20512;-78
2021/07/03 02:03:05;;;;;;;1.60;1.13;;;14.50;84.80;;;;;;5059534;28;20059;-78
2021/07/03 02:05:30;;;;;;;2.05;1.30;;;14.50;84.80;;;;;;5094137;28;20501;-78
2021/07/03 02:07:56;;;;;;;2.42;1.48;;;14.50;84.80;;;;;;5059762;28;20467;-78
2021/07/03 02:10:21;;;;;;;2.80;1.60;;;14.50;84.80;;;;;;5094684;28;20247;-78
2021/07/03 02:12:47;;;;;;;1.95;1.35;;;14.50;84.90;;;;;;5076071;28;20032;-78
2021/07/03 02:15:12;;;;;;;1.98;1.20;;;14.50;84.90;;;;;;5076330;28;20138;-78
2021/07/03 02:17:38;;;;;;;1.48;1.20;;;14.40;84.90;;;;;;5094566;28;20051;-78
2021/07/03 02:20:04;;;;;;;1.58;1.20;;;14.40;85.00;;;;;;5059742;28;20101;-78
2021/07/03 02:22:30;;;;;;;1.45;1.10;;;14.40;85.00;;;;;;5094499;28;20051;-78
2021/07/03 02:24:56;;;;;;;1.70;1.15;;;14.40;85.00;;;;;;5076358;28;20048;-78
2021/07/03 02:27:21;;;;;;;1.75;1.15;;;14.40;85.10;;;;;;5076452;28;20043;-78
2021/07/03 02:29:47;;;;;;;1.20;1.00;;;14.30;85.00;;;;;;5093919;28;20036;-78
2021/07/03 02:32:12;;;;;;;2.20;1.33;;;14.40;85.10;;;;;;5076378;28;20106;-78
2021/07/03 02:34:38;;;;;;;1.83;1.30;;;14.40;85.10;;;;;;5076327;28;20438;-78
2021/07/03 02:37:04;;;;;;;2.20;1.40;;;14.30;85.10;;;;;;5093757;28;20138;-78
2021/07/03 02:39:30;;;;;;;2.38;1.60;;;14.30;85.00;;;;;;5075426;28;20039;-78
2021/07/03 02:41:55;;;;;;;2.53;1.70;;;14.30;85.10;;;;;;5075499;28;20897;-78
2021/07/03 02:44:21;;;;;;;1.70;1.35;;;14.30;85.20;;;;;;5075365;28;20091;-78
2021/07/03 02:46:47;;;;;;;4.05;1.88;;;14.30;85.10;;;;;;5075617;28;20040;-78
2021/07/03 02:49:12;;;;;;;1.58;1.13;;;14.30;85.20;;;;;;5058338;28;20405;-78
2021/07/03 02:51:38;;;;;;;2.85;1.70;;;14.30;85.20;;;;;;5094073;28;20389;-78
2021/07/03 02:54:03;;;;;;;3.03;1.52;;;14.40;85.30;;;;;;5093576;28;20124;-78
2021/07/03 02:56:29;;;;;;;2.60;1.40;;;14.30;85.10;;;;;;5074776;28;20101;-78
2021/07/03 02:58:54;;;;;;;2.78;1.67;;;14.30;85.20;;;;;;5058634;28;20044;-78
2021/07/03 03:01:20;;;;;;;2.83;1.75;;;14.40;85.20;;;;;;5093488;28;20036;-78
2021/07/03 03:03:46;;;;;;;1.95;1.40;;;14.40;85.30;;;;;;5075126;28;20486;-78
2021/07/03 03:06:13;;;;;;;2.28;1.30;;;14.40;85.20;;;;;;5093190;28;20477;-78
2021/07/03 03:08:39;;;;;;;2.53;1.38;;;14.40;85.20;;;;;;5058597;28;20039;-78
2021/07/03 03:11:04;;;;;;;2.53;1.50;;;14.40;85.20;;;;;;5058536;28;20042;-77
2021/07/03 03:13:30;;;;;;;2.22;1.30;;;14.40;85.30;;;;;;5075170;28;20047;-77
2021/07/03 03:15:55;;;;;;;1.50;1.00;;;14.40;85.30;;;;;;5075485;28;20078;-78
2021/07/03 03:18:21;;;;;;;2.38;1.15;;;14.40;85.30;;;;;;5093173;28;20126;-77
2021/07/03 03:20:46;;;;;;;2.00;1.40;;;14.40;85.30;;;;;;5093042;28;20406;-77
2021/07/03 03:23:12;;;;;;;4.05;1.80;;;14.40;85.30;;;;;;5093200;28;20155;-77
2021/07/03 03:25:38;;;;;;;1.45;1.02;;;14.30;85.30;;;;;;5092854;28;20489;-78
2021/07/03 03:28:03;;;;;;;2.08;1.30;;;14.40;85.40;;;;;;5093108;28;20047;-77
2021/07/03 03:30:29;;;;;;;1.42;1.17;;;14.40;85.30;;;;;;5074265;28;20037;-77
2021/07/03 03:32:55;;;;;;;2.10;1.23;;;14.50;85.30;;;;;;5093067;28;20047;-77
2021/07/03 03:35:20;;;;;;;1.90;1.13;;;14.50;85.20;;;;;;5072675;28;20510;-77
2021/07/03 03:37:46;;;;;;;1.77;1.15;;;14.50;85.20;;;;;;5074730;28;20105;-77
2021/07/03 03:40:12;;;;;;;2.65;1.50;;;14.50;85.20;;;;;;5073497;28;20048;-77
2021/07/03 03:42:38;;;;;;;1.92;1.20;;;14.60;85.20;;;;;;5057938;28;20489;-78
2021/07/03 03:45:05;;;;;;;1.63;1.20;;;14.60;85.20;;;;;;5074843;28;20040;-77
2021/07/03 03:47:31;;;;;;;1.70;1.20;;;14.60;85.20;;;;;;5057717;28;20075;-77
2021/07/03 03:49:56;;;;;;;2.03;1.38;;;14.70;85.20;;;;;;5074914;28;20455;-77
2021/07/03 03:52:22;;;;;;;2.88;1.45;;;14.70;85.20;;;;;;5091894;28;20051;-77
2021/07/03 03:54:47;;;;;;;2.00;1.45;;;14.80;85.20;;;;;;5092747;28;20049;-77
2021/07/03 03:59:52;;;;;;;2.47;1.30;;;14.80;85.10;;;;;;5076470;28;20032;-77
2021/07/03 04:02:19;;;;;;;1.55;1.10;;;14.80;85.10;;;;;;5092983;28;20067;-77
2021/07/03 04:04:44;;;;;;;2.38;1.48;;;14.90;85.20;;;;;;5041260;28;20497;-78
2021/07/03 04:07:10;;;;;;;2.03;1.45;;;14.90;85.20;;;;;;5074560;28;20051;-77
2021/07/03 04:09:36;;;;;;;2.28;1.27;;;14.90;85.20;;;;;;5074211;28;20491;-77
2021/07/03 04:12:02;;;;;;;2.50;1.50;;;15.00;85.30;;;;;;5092530;28;20066;-77
2021/07/03 04:14:27;;;;;;;1.83;1.10;;;15.00;85.20;;;;;;5092456;28;20036;-77
2021/07/03 04:16:55;;;;;;;2.70;1.40;;;15.00;85.20;;;;;;5074761;28;20040;-78
2021/07/03 04:19:20;;;;;;;2.95;1.50;;;15.00;85.20;;;;;;5074172;28;20562;-78
2021/07/03 04:21:46;;;;;;;1.73;1.30;;;15.10;85.30;;;;;;5092729;28;20040;-78
2021/07/03 04:24:11;;;;;;;2.22;1.38;;;15.00;85.30;;;;;;5072463;28;20040;-78
2021/07/03 04:26:37;;;;;;;4.35;1.90;;;15.10;85.30;;;;;;5074123;28;20154;-78
2021/07/03 04:29:03;;;;;;;3.47;1.83;;;15.10;85.30;;;;;;5074884;28;20081;-77
2021/07/03 04:31:28;;;;;;;3.47;1.70;;;15.10;85.90;;;;;;5058355;28;20040;-78
2021/07/03 04:33:54;;;;;;;2.70;1.63;;;15.20;85.40;;;;;;5092798;28;20047;-78
2021/07/03 04:36:19;;;;;;;2.53;1.67;;;15.10;85.40;;;;;;5092119;28;20039;-78
2021/07/03 04:38:45;;;;;;;2.67;1.50;;;15.10;85.40;;;;;;5074015;28;20489;-78
2021/07/03 04:41:10;;;;;;;4.30;2.10;;;15.20;85.50;;;;;;5092584;28;20044;-78
2021/07/03 04:43:36;;;;;;;2.65;1.50;;;15.20;85.60;;;;;;5073315;28;20045;-78
2021/07/03 04:46:02;;;;;;;3.05;1.63;;;15.10;85.50;;;;;;5091766;28;20146;-77
2021/07/03 04:48:27;;;;;;;3.03;1.60;;;15.20;85.60;;;;;;5092069;28;20124;-78
2021/07/03 04:50:53;;;;;;;2.83;1.38;;;15.20;85.60;;;;;;5092035;28;20044;-78
2021/07/03 04:53:18;;;;;;;2.70;1.67;;;15.20;85.60;;;;;;5092257;28;20036;-78
2021/07/03 04:55:44;;;;;;;3.50;1.48;;;15.20;85.60;;;;;;5073868;28;20069;-78
2021/07/03 04:58:09;;;;;;;2.45;1.60;;;15.30;85.60;;;;;;5057029;28;20402;-78
2021/07/03 05:00:35;;;;;;;2.40;1.52;;;15.30;85.60;;;;;;5092210;28;20086;-78
2021/07/03 05:03:01;;;;;;;3.47;1.98;;;15.30;85.60;;;;;;5073610;28;20051;-78
2021/07/03 05:05:27;;;;;;;2.95;1.80;;;15.40;85.70;;;;;;5043242;28;20086;-78
2021/07/03 05:07:52;;;;;;;3.35;1.60;;;15.30;85.60;;;;;;5076925;28;20138;-78
2021/07/03 05:10:18;;;;;;;2.42;1.40;;;15.40;85.70;;;;;;5077106;28;20040;-78
2021/07/03 05:12:47;;;;;;;2.65;1.38;;;15.40;85.70;;;;;;5076906;28;20118;-79
2021/07/03 05:15:12;;;;;;;2.92;1.80;;;15.40;85.70;;;;;;5043639;28;20401;-79
2021/07/03 05:17:38;;;;;;;2.15;1.38;;;15.40;85.70;;;;;;5095390;28;20044;-80
2021/07/03 05:20:04;;;;;;;2.10;1.35;;;15.50;85.70;;;;;;5077141;28;20100;-79
2021/07/03 05:22:30;;;;;;;2.85;1.80;;;15.50;85.60;;;;;;5077553;28;20080;-79
2021/07/03 05:24:56;;;;;;;2.85;1.73;;;15.60;85.60;;;;;;5077464;28;20059;-77
2021/07/03 05:27:21;;;;;;;2.67;1.40;;;15.60;85.50;;;;;;5060236;28;20490;-79
2021/07/03 05:29:48;;;;;;;3.85;1.90;;;15.70;85.50;;;;;;5094960;28;20451;-79
2021/07/03 05:32:13;;;;;;;3.83;1.92;;;15.80;85.40;;;;;;5095065;28;20032;-79
2021/07/03 05:34:39;;;;;;;3.42;1.85;;;15.80;85.20;;;;;;5059103;28;20170;-79
2021/07/03 05:37:06;;;;;;;2.97;1.73;;;15.90;85.10;;;;;;5094915;28;20371;-79
2021/07/03 05:39:32;;;;;;;2.72;1.60;;;16.00;85.10;;;;;;5095284;28;20044;-80
2021/07/03 05:41:58;;;;;;;2.92;1.60;;;16.10;85.00;;;;;;5076445;28;20050;-79
2021/07/03 05:44:24;;;;;;;3.70;1.88;;;16.20;84.90;;;;;;5058642;28;20040;-80
2021/07/03 05:46:54;;;;;;;3.53;2.10;;;16.30;84.70;;;;;;5058031;28;20044;-78
2021/07/03 05:49:20;;;;;;;3.58;1.60;;;16.40;84.60;;;;;;5074971;28;20109;-78
2021/07/03 05:51:46;;;;;;;4.90;2.50;;;16.40;84.60;;;;;;5042771;28;20489;-78
2021/07/03 05:54:12;;;;;;;3.83;2.30;;;16.50;84.60;;;;;;5077275;28;20040;-78
2021/07/03 05:56:38;;;;;;;3.13;2.08;;;16.60;84.50;;;;;;5094937;28;20040;-78
2021/07/03 05:59:04;;;;;;;3.60;2.03;;;16.70;84.40;;;;;;5074690;28;20042;-78
2021/07/03 06:01:30;;;;;;;3.83;2.17;;;16.70;84.20;;;;;;5094824;28;20039;-78
2021/07/03 06:03:55;;;;;;;2.83;1.70;;;16.90;84.20;;;;;;5076526;28;20051;-79
2021/07/03 06:06:21;;;;;;;3.80;2.03;;;16.90;84.10;;;;;;5076311;28;20044;-78
2021/07/03 06:08:47;;;;;;;2.80;1.73;;;17.00;84.00;;;;;;5075759;28;20040;-78
2021/07/03 06:11:13;;;;;;;3.90;2.15;;;17.10;83.90;;;;;;5058338;28;20047;-78
2021/07/03 06:13:39;;;;;;;2.55;1.70;;;17.20;83.80;;;;;;5057741;28;20620;-78
2021/07/03 06:16:05;;;;;;;2.92;1.90;;;17.20;83.70;;;;;;5092904;28;20077;-78
2021/07/03 06:18:31;;;;;;;3.50;1.98;;;17.30;83.70;;;;;;5094224;28;20131;-78
2021/07/03 06:20:57;;;;;;;3.15;1.80;;;17.30;83.70;;;;;;5094151;28;20123;-78
2021/07/03 06:23:25;;;;;;;4.97;2.17;;;17.40;83.70;;;;;;5076168;28;20109;-78
2021/07/03 06:25:50;;;;;;;4.50;2.38;;;17.50;83.70;;;;;;5075935;28;20104;-77
2021/07/03 06:28:16;;;;;;;4.05;2.00;;;17.60;83.60;;;;;;5094243;28;20478;-77
2021/07/03 06:30:42;;;;;;;3.90;2.13;;;17.80;83.40;;;;;;5057775;28;20045;-78
2021/07/03 06:33:07;;;;;;;5.15;2.47;;;17.80;83.20;;;;;;5075964;28;20029;-78
2021/07/03 06:35:33;;;;;;;3.90;2.50;;;17.90;83.10;;;;;;5075579;28;20636;-78
2021/07/03 06:37:59;;;;;;;3.22;2.13;;;18.00;83.10;;;;;;5093851;28;20125;-78
2021/07/03 06:40:24;;;;;;;2.92;1.80;;;18.00;83.00;;;;;;5074411;28;20485;-78
2021/07/03 06:42:50;;;;;;;4.32;2.60;;;18.00;83.00;;;;;;5075647;28;20051;-78
2021/07/03 06:45:15;;;;;;;3.17;1.95;;;18.10;83.10;;;;;;5057650;28;20052;-78
2021/07/03 06:47:41;;;;;;;4.45;2.47;;;18.30;83.00;;;;;;5073971;28;20041;-78
2021/07/03 06:50:08;;;;;;;3.45;2.17;;;18.40;82.80;;;;;;5058745;28;20032;-78
2021/07/03 06:52:33;;;;;;;3.20;2.08;;;18.50;82.60;;;;;;5076048;28;20036;-77
2021/07/03 06:54:59;;;;;;;3.72;2.33;;;18.60;82.40;;;;;;5075559;28;20036;-78
2021/07/03 06:57:24;;;;;;;3.25;1.90;;;18.80;82.30;;;;;;5093468;28;20394;-78
2021/07/03 06:59:50;;;;;;;4.65;2.75;;;18.90;82.10;;;;;;5075391;28;21362;-78
2021/07/03 07:02:18;;;;;;;4.22;2.38;;;19.20;81.90;;;;;;5075662;28;20067;-78
2021/07/03 07:04:43;;;;;;;4.18;2.42;;;19.30;81.70;;;;;;5075732;28;20092;-76
2021/07/03 07:07:09;;;;;;;3.03;1.95;;;19.50;81.40;;;;;;5093229;28;20048;-76
2021/07/03 07:09:35;;;;;;;2.63;1.73;;;19.70;81.20;;;;;;5075195;28;20047;-76
2021/07/03 07:12:00;;;;;;;3.00;2.05;;;20.00;81.00;;;;;;5093955;28;20040;-77
2021/07/03 07:14:26;;;;;;;3.15;2.00;;;20.10;80.70;;;;;;5075368;28;20043;-78
2021/07/03 07:16:53;;;;;;;3.67;2.22;;;20.30;80.50;;;;;;5093948;28;20131;-77
2021/07/03 07:19:18;;;;;;;4.53;2.78;;;20.50;80.30;;;;;;5058523;28;20044;-78
2021/07/03 07:21:44;;;;;;;3.53;2.15;;;20.70;80.10;;;;;;5075358;28;20044;-77
2021/07/03 07:24:09;;;;;;;5.03;2.53;;;20.80;80.00;;;;;;5057950;28;20040;-77
2021/07/03 07:26:35;;;;;;;3.55;2.22;;;21.00;79.80;;;;;;5074585;28;20474;-77
2021/07/03 07:29:01;;;;;;;3.50;1.90;;;21.20;79.60;;;;;;5093752;28;20032;-78
2021/07/03 07:31:26;;;;;;;3.00;2.20;;;21.40;79.50;;;;;;5075561;28;20051;-77
2021/07/03 07:33:52;;;;;;;3.80;2.47;;;21.50;79.20;;;;;;5074767;28;20051;-77
2021/07/03 07:36:18;;;;;;;3.47;2.20;;;21.80;79.20;;;;;;5093406;28;20064;-77
2021/07/03 07:38:43;;;;;;;3.13;2.03;;;21.90;78.90;;;;;;5074876;28;20051;-77
2021/07/03 07:41:09;;;;;;;2.67;1.80;;;21.90;78.80;;;;;;5093421;28;20920;-78
2021/07/03 07:43:35;;;;;;;2.67;1.80;;;22.00;78.90;;;;;;5075345;28;20052;-78
2021/07/03 07:46:02;;;;;;;3.05;2.10;;;22.20;78.90;;;;;;5072967;28;20091;-77
2021/07/03 07:48:29;;;;;;;3.30;2.20;;;22.40;78.70;;;;;;5093427;28;20036;-77
2021/07/03 07:50:57;;;;;;;2.60;1.80;;;22.60;79.00;;;;;;5074611;28;20036;-77
2021/07/03 07:53:23;;;;;;;4.78;2.42;;;22.80;78.10;;;;;;5093209;28;20378;-77
2021/07/03 07:55:49;;;;;;;3.08;1.92;;;22.90;77.90;;;;;;5074699;28;20124;-77
2021/07/03 07:58:15;;;;;;;3.13;2.17;;;23.00;77.80;;;;;;5057997;28;20136;-77
2021/07/03 08:00:40;;;;;;;3.95;2.60;;;23.20;77.60;;;;;;5074718;28;20047;-77
2021/07/03 08:03:07;;;;;;;2.65;2.03;;;23.30;77.40;;;;;;5092771;28;20047;-77
2021/07/03 08:05:33;;;;;;;2.80;1.98;;;23.50;77.40;;;;;;5092582;28;20043;-77
2021/07/03 08:07:58;;;;;;;3.13;1.98;;;23.60;77.50;;;;;;5093167;28;20035;-77
2021/07/03 08:10:27;;;;;;;3.30;2.00;;;23.60;77.40;;;;;;5074166;28;20076;-77
2021/07/03 08:12:54;;;;;;;3.08;1.92;;;23.60;77.50;;;;;;5092530;28;20033;-78
2021/07/03 08:15:19;;;;;;;3.38;2.40;;;23.80;77.50;;;;;;5092667;28;20044;-77
2021/07/03 08:17:45;;;;;;;2.75;2.10;;;24.00;77.30;;;;;;5093103;28;20539;-78
2021/07/03 08:20:13;;;;;;;3.20;2.22;;;24.10;76.90;;;;;;5074246;28;20581;-78
2021/07/03 08:22:39;;;;;;;3.30;2.10;;;24.30;76.70;;;;;;5074195;28;20048;-77
2021/07/03 08:25:05;;;;;;;3.17;2.25;;;24.40;76.80;;;;;;5072183;28;20048;-78
2021/07/03 08:27:31;;;;;;;4.32;2.30;;;24.60;76.60;;;;;;5074114;28;20044;-78
2021/07/03 08:29:56;;;;;;;3.60;2.45;;;24.70;76.30;;;;;;5074100;28;20397;-76
2021/07/03 08:32:22;;;;;;;2.88;1.85;;;24.60;76.10;;;;;;5074409;28;20508;-75
2021/07/03 08:34:48;;;;;;;3.33;1.90;;;24.40;76.80;;;;;;5074147;28;20101;-75
2021/07/03 08:37:13;;;;;;;3.08;2.05;;;24.40;77.10;;;;;;5074193;28;20551;-75
2021/07/03 08:39:39;;;;;;;2.95;1.95;;;24.70;76.90;;;;;;5095678;28;20044;-75
2021/07/03 08:42:05;;;;;;;3.55;2.33;;;24.90;76.40;;;;;;5095974;28;20036;-77
2021/07/03 08:44:31;;;;;;;2.60;1.83;;;25.10;75.90;;;;;;5095720;28;20048;-76
2021/07/03 08:46:57;;;;;;;2.08;1.80;;;25.20;75.60;;;;;;5077388;28;20055;-75
2021/07/03 08:49:23;;;;;;;2.58;1.80;;;25.40;75.30;;;;;;5095618;28;20036;-75
2021/07/03 08:51:48;;;;;;;1.98;1.67;;;25.60;75.10;;;;;;5077187;28;20405;-75
2021/07/03 08:54:14;;;;;;;3.17;2.17;;;25.70;75.00;;;;;;5060700;28;20082;-75
2021/07/03 08:56:40;;;;;;;3.58;2.30;;;25.80;74.80;;;;;;5095457;28;20073;-77
2021/07/03 08:59:20;;;;;;;2.75;2.08;;;25.80;74.70;;;;;;5095422;28;20138;-75
2021/07/03 09:01:49;;;;;;;4.57;2.38;;;25.90;74.80;;;;;;5077329;28;20073;-75
2021/07/03 09:04:15;;;;;;;3.08;2.13;;;26.00;74.70;;;;;;5095490;28;20052;-75
2021/07/03 09:06:41;;;;;;;3.10;1.98;;;26.10;74.50;;;;;;5077087;28;20119;-75
2021/07/03 09:09:07;;;;;;;1.85;1.67;;;26.20;74.20;;;;;;5095366;28;20112;-76
2021/07/03 09:11:34;;;;;;;2.10;1.65;;;26.40;74.00;;;;;;5095225;28;20481;-75
2021/07/03 09:14:07;;;;;;;2.50;2.03;;;26.60;73.70;;;;;;5095401;28;20514;-75
2021/07/03 09:16:35;;;;;;;3.15;2.20;;;26.60;73.40;;;;;;5095314;28;20044;-75
2021/07/03 09:19:02;;;;;;;2.03;1.73;;;26.80;74.00;;;;;;5094849;28;20130;-75
2021/07/03 09:21:29;;;;;;;2.03;1.70;;;26.80;73.20;;;;;;5095392;28;20043;-76
2021/07/03 09:23:56;;;;;;;1.98;1.67;;;26.90;73.10;;;;;;5075240;28;20040;-75
2021/07/03 09:26:22;;;;;;;2.83;1.83;;;26.90;73.10;;;;;;5094885;28;20036;-76
2021/07/03 09:28:48;;;;;;;2.35;1.90;;;26.90;73.00;;;;;;5076849;28;20047;-76
2021/07/03 09:31:16;;;;;;;2.47;1.80;;;26.90;73.20;;;;;;5075618;28;20032;-75
2021/07/03 09:33:48;;;;;;;2.25;1.75;;;26.80;73.40;;;;;;5076778;28;20036;-76
2021/07/03 09:36:21;;;;;;;2.45;1.80;;;26.90;73.40;;;;;;5094982;28;20040;-76
2021/07/03 09:38:49;;;;;;;2.10;1.80;;;26.90;73.40;;;;;;5095307;28;20386;-76
2021/07/03 09:41:23;;;;;;;2.20;1.60;;;27.00;73.30;;;;;;5095280;28;20044;-76
2021/07/03 09:44:00;;;;;;;1.90;1.50;;;27.10;73.00;;;;;;5076595;28;20452;-75
2021/07/03 09:46:47;;;;;;;3.05;1.75;;;27.20;72.70;;;;;;5075082;28;20047;-75
2021/07/03 09:49:16;;;;;;;2.45;1.80;;;27.30;72.50;;;;;;5094169;28;20040;-75
2021/07/03 09:51:45;;;;;;;1.73;1.55;;;27.20;72.20;;;;;;5094692;28;20587;-77
2021/07/03 09:54:12;;;;;;;2.20;1.55;;;27.10;72.70;;;;;;5094859;28;20055;-76
2021/07/03 09:56:40;;;;;;;2.05;1.58;;;26.90;72.60;;;;;;5094707;28;20134;-76
2021/07/03 09:59:07;;;;;;;1.50;1.40;;;26.80;72.80;;;;;;5094445;28;20142;-77
2021/07/03 10:01:33;;;;;;;2.85;1.83;;;26.60;73.10;;;;;;5076679;28;20103;-77
2021/07/03 10:04:01;;;;;;;1.95;1.45;;;26.50;73.30;;;;;;5077084;28;20040;-77
2021/07/03 10:06:36;;;;;;;1.95;1.63;;;26.50;73.30;;;;;;5076136;28;20097;-77
2021/07/03 10:09:06;;;;;;;1.77;1.58;;;26.60;72.90;;;;;;5094970;28;20043;-77
2021/07/03 10:11:37;;;;;;;;;;;26.80;72.50;;;;;;5095397;28;20032;-77
2021/07/03 10:14:05;;;;;;;2.20;1.55;;;26.80;72.50;;;;;;5094991;28;19918;-77
2021/07/03 10:16:31;;;;;;;1.50;1.40;;;27.00;72.30;;;;;;5076703;28;20423;-77
2021/07/03 10:19:13;;;;;;;1.83;1.52;;;27.30;71.70;;;;;;5094811;28;20040;-77
2021/07/03 10:21:40;;;;;;;1.95;1.63;;;27.30;70.70;;;;;;5076600;28;20103;-77
2021/07/03 10:24:17;;;;;;;1.70;1.60;;;27.30;70.80;;;;;;5094862;28;20078;-77
2021/07/03 10:26:43;;;;;;;2.38;1.90;;;27.40;70.50;;;;;;5076529;28;20043;-77
2021/07/03 10:29:19;;;;;;;2.08;1.88;;;27.60;70.40;;;;;;5094664;28;20123;-77
2021/07/03 10:31:46;;;;;;;1.92;1.55;;;27.60;69.90;;;;;;5094066;28;20074;-77
2021/07/03 10:34:12;;;;;;;2.03;1.60;;;27.80;69.80;;;;;;5094633;28;20048;-77
2021/07/03 10:36:38;;;;;;;2.10;1.80;;;27.90;69.50;;;;;;5094191;28;20040;-77
2021/07/03 10:39:05;;;;;;;2.50;1.90;;;27.90;69.40;;;;;;5094606;28;20039;-77
2021/07/03 10:41:32;;;;;;;2.15;1.90;;;27.80;69.40;;;;;;5076550;28;20091;-77
2021/07/03 10:44:10;;;;;;;2.45;1.80;;;27.80;69.40;;;;;;5076069;28;20040;-77
2021/07/03 10:46:41;;;;;;;1.67;1.58;;;27.80;69.10;;;;;;5094449;28;20040;-77
2021/07/03 10:49:19;;;;;;;2.95;1.90;;;27.90;69.00;;;;;;5075786;28;20062;-77
2021/07/03 10:51:47;;;;;;;2.10;1.75;;;27.90;68.80;;;;;;5094933;28;20067;-78
2021/07/03 10:54:19;;;;;;;1.83;1.63;;;28.00;68.80;;;;;;5093989;28;20040;-77
2021/07/03 10:57:00;;;;;;;2.13;1.70;;;27.90;68.30;;;;;;5093792;28;20132;-77
2021/07/03 10:59:27;;;;;;;1.80;1.58;;;27.60;68.50;;;;;;5090267;28;20055;-78
2021/07/03 11:01:53;;;;;;;2.10;1.70;;;27.40;69.30;;;;;;5075664;28;20402;-78
2021/07/03 11:04:21;;;;;;;1.98;1.70;;;27.40;69.30;;;;;;5093987;28;20068;-79
2021/07/03 11:06:50;;;;;;;1.80;1.50;;;27.40;69.10;;;;;;5093520;28;20048;-82
2021/07/03 11:09:28;;;;;;;1.90;1.60;;;27.60;68.70;;;;;;5094089;28;20105;-86
2021/07/03 11:11:56;;;;;;;1.65;1.55;;;27.80;68.00;;;;;;5092274;28;20044;-86
2021/07/03 11:14:22;;;;;;;2.20;1.67;;;28.00;67.50;;;;;;5042941;28;20444;-86
2021/07/03 11:16:57;;;;;;;1.70;1.50;;;28.00;67.40;;;;;;5076408;28;20170;-86
2021/07/03 11:19:27;;;;;;;1.55;1.40;;;28.10;67.20;;;;;;5040338;28;20040;-86
2021/07/03 11:22:06;;;;;;;2.17;1.70;;;28.10;66.90;;;;;;5059640;28;20043;-86
2021/07/03 11:24:47;;;;;;;1.98;1.70;;;28.20;66.70;;;;;;5091912;28;20080;-85
2021/07/03 11:27:36;;;;;;;1.55;1.45;;;28.20;66.70;;;;;;5057289;28;20044;-85
2021/07/03 11:30:07;;;;;;;1.95;1.60;;;27.90;66.50;;;;;;5075068;28;20537;-85
2021/07/03 11:32:33;;;;;;;1.95;1.67;;;27.70;67.10;;;;;;5091791;28;20439;-84
2021/07/03 11:35:01;;;;;;;2.33;1.80;;;27.70;67.10;;;;;;5096615;28;20048;-86
2021/07/03 11:37:31;;;;;;;1.65;1.50;;;27.60;67.00;;;;;;5048038;28;20125;-86
2021/07/03 11:40:06;;;;;;;1.98;1.70;;;27.50;67.00;;;;;;5095028;28;20086;-89
2021/07/03 11:45:44;;;;;;;2.08;1.63;;;27.10;67.20;;;;;;5028227;28;20420;-84
2021/07/03 11:48:13;;;;;;;1.85;1.60;;;27.10;67.20;;;;;;5037251;28;20040;-85
2021/07/03 11:50:49;;;;;;;1.73;1.60;;;27.00;67.30;;;;;;5001272;28;20108;-86
2021/07/03 11:53:18;;;;;;;2.35;1.60;;;26.90;67.40;;;;;;5034570;28;20135;-87
2021/07/03 11:59:15;;;;;;;1.55;1.45;;;27.00;66.90;;;;;;4887777;29;20052;-91
2021/07/03 12:02:37;;;;;;;1.80;1.30;;;27.20;66.80;;;;;;4898141;29;20046;-89
2021/07/03 12:05:47;;;;;;;1.80;1.45;;;27.30;66.40;;;;;;4834159;29;20179;-89
2021/07/03 12:08:18;;;;;;;1.48;1.38;;;27.40;66.30;;;;;;4817347;29;20137;-89
2021/07/03 12:11:40;;;;;;;2.00;1.50;;;27.30;66.10;;;;;;4819051;29;20051;-89
2021/07/03 12:18:29;;;;;;;1.65;1.48;;;27.10;66.50;;;;;;4747040;30;20419;-86
2021/07/03 12:21:34;;;;;;;1.55;1.40;;;27.00;66.40;;;;;;4761950;30;20170;-86
2021/07/03 12:25:05;;;;;;;1.98;1.48;;;26.90;66.40;;;;;;4728495;30;20131;-87
2021/07/03 12:27:33;;;;;;;2.67;1.30;;;27.10;66.20;;;;;;4745537;30;20095;-83
2021/07/03 12:30:09;;;;;;;1.60;1.50;;;27.10;66.10;;;;;;4767076;30;20075;-79
2021/07/03 12:32:34;;;;;;;1.83;1.60;;;27.20;65.90;;;;;;4821881;29;20102;-87
2021/07/03 12:35:11;;;;;;;1.60;1.42;;;27.00;65.60;;;;;;4839588;29;20041;-86
2021/07/03 12:37:38;;;;;;;2.17;1.75;;;26.80;65.80;;;;;;4846337;29;20464;-87
2021/07/03 12:40:14;;;;;;;1.45;1.35;;;26.80;66.00;;;;;;4913957;29;20040;-88
2021/07/03 12:42:40;;;;;;;1.95;1.48;;;26.70;66.10;;;;;;4995410;28;20109;-87
2021/07/03 12:45:06;;;;;;;1.65;1.50;;;26.70;66.20;;;;;;4997248;28;20037;-88
2021/07/03 12:47:32;;;;;;;1.80;1.38;;;26.80;66.10;;;;;;5034539;28;20091;-87
2021/07/03 12:50:00;;;;;;;1.63;1.50;;;26.80;65.70;;;;;;5057886;28;20044;-88
2021/07/03 12:52:35;;;;;;;1.63;1.52;;;26.90;65.50;;;;;;5074871;28;20049;-88
2021/07/03 12:55:01;;;;;;;1.80;1.40;;;27.00;65.40;;;;;;5041291;28;20036;-88
2021/07/03 12:57:43;;;;;;;2.45;1.65;;;27.00;65.30;;;;;;5041205;28;20174;-88
2021/07/03 13:00:10;;;;;;;1.55;1.45;;;27.20;65.30;;;;;;5042183;28;20366;-88
2021/07/03 13:02:37;;;;;;;1.90;1.70;;;27.20;65.10;;;;;;5054481;28;20134;-88
2021/07/03 13:05:05;;;;;;;2.10;1.63;;;27.20;65.00;;;;;;5054395;28;20083;-88